createdAt,value
2022-12-23T00:01:16.064Z,96263.34
2022-12-23T00:11:20.162Z,96252.09
2022-12-23T00:21:22.590Z,96251.28
2022-12-23T00:31:25.478Z,96260.97
2022-12-23T00:41:46.141Z,96246.06
2022-12-23T00:51:48.355Z,96238.75
2022-12-23T01:02:09.092Z,96229.22
2022-12-23T01:12:11.456Z,96207.81
2022-12-23T01:22:13.649Z,96217.59
2022-12-23T01:32:15.833Z,96200.91
2022-12-23T01:42:38.956Z,96188.03
2022-12-23T01:53:02.987Z,96182.78
2022-12-23T02:03:27.363Z,96163.66
2022-12-23T02:13:39.216Z,96161.03
2022-12-23T02:24:24.513Z,96158.63
2022-12-23T02:34:29.584Z,96150.53
2022-12-23T02:45:01.981Z,96151.69
2022-12-23T02:55:10.856Z,96147.47
2022-12-23T03:05:41.273Z,96151.75
2022-12-23T03:15:50.588Z,96133.84
2022-12-23T03:26:16.516Z,96153.91
2022-12-23T03:36:24.857Z,96155.69
2022-12-23T03:46:37.877Z,96160.28
2022-12-23T03:56:47.348Z,96159.78
2022-12-23T04:06:57.516Z,96146.75
2022-12-23T04:16:59.828Z,96137.63
2022-12-23T04:27:01.975Z,96121.72
2022-12-23T04:37:04.157Z,96104.75
2022-12-23T04:47:06.424Z,96101.94
2022-12-23T04:57:08.687Z,96115.75
2022-12-23T05:07:10.961Z,96110.00
2022-12-23T05:17:13.106Z,96106.69
2022-12-23T05:27:15.307Z,96109.47
2022-12-23T05:37:17.474Z,96108.81
2022-12-23T05:47:19.628Z,96098.13
2022-12-23T05:57:22.055Z,96100.28
2022-12-23T06:07:24.269Z,96112.91
2022-12-23T06:17:27.102Z,96119.09
2022-12-23T06:27:29.337Z,96129.47
2022-12-23T06:37:31.528Z,96125.75
2022-12-23T06:47:33.746Z,96117.94
2022-12-23T06:57:35.946Z,96125.56
2022-12-23T07:07:38.213Z,96138.03
2022-12-23T07:17:41.015Z,96149.25
2022-12-23T07:27:43.225Z,96157.41
2022-12-23T07:37:45.778Z,96143.44
2022-12-23T07:47:47.972Z,96125.63
2022-12-23T07:57:51.384Z,96135.34
2022-12-23T08:07:53.648Z,96152.31
2022-12-23T08:17:56.755Z,96169.94
2022-12-23T08:27:58.906Z,96169.94
2022-12-23T08:38:01.067Z,96173.69
2022-12-23T08:48:03.753Z,96165.91
2022-12-23T08:58:06.365Z,96177.91
2022-12-23T09:08:09.437Z,96162.84
2022-12-23T09:18:12.327Z,96174.19
2022-12-23T09:28:14.538Z,96167.94
2022-12-23T09:38:17.050Z,96180.16
2022-12-23T09:48:22.898Z,96179.38
2022-12-23T09:59:00.084Z,96167.28
2022-12-23T10:09:05.131Z,96173.91
2022-12-23T10:19:12.385Z,96183.72
2022-12-23T10:29:23.516Z,96189.84
2022-12-23T10:39:40.867Z,96183.88
2022-12-23T10:50:26.285Z,96205.41
2022-12-23T11:00:29.757Z,96189.56
2022-12-23T11:10:33.548Z,96204.47
2022-12-23T11:20:37.285Z,96199.41
2022-12-23T11:30:55.245Z,96185.94
2022-12-23T11:40:58.947Z,96179.63
2022-12-23T11:51:04.049Z,96176.09
2022-12-23T12:01:14.933Z,96180.34
2022-12-23T12:11:19.293Z,96186.09
2022-12-23T12:21:28.443Z,96197.50
2022-12-23T12:31:45.617Z,96207.50
2022-12-23T12:41:58.525Z,96223.97
2022-12-23T12:52:14.281Z,96229.63
2022-12-23T13:02:28.491Z,96236.38
2022-12-23T13:12:53.216Z,96242.91
2022-12-23T13:23:26.979Z,96237.50
2022-12-23T13:33:55.769Z,96235.06
2022-12-23T13:44:18.931Z,96245.25
2022-12-23T13:54:42.481Z,96233.59
2022-12-23T14:04:59.172Z,96251.91
2022-12-23T14:15:22.715Z,96244.41
2022-12-23T14:25:53.723Z,96250.16
2022-12-23T14:36:13.159Z,96236.94
2022-12-23T14:46:34.044Z,96228.38
2022-12-23T14:56:39.053Z,96227.31
2022-12-23T15:06:45.277Z,96224.91
2022-12-23T15:16:47.570Z,96229.41
2022-12-23T15:27:24.587Z,96231.09
2022-12-23T15:37:24.978Z,96245.13
2022-12-23T15:47:36.593Z,96241.09
2022-12-23T15:57:50.040Z,96228.41
2022-12-23T16:08:14.147Z,96221.94
2022-12-23T16:18:19.325Z,96220.88
2022-12-23T16:28:26.632Z,96220.03
2022-12-23T16:38:30.135Z,96216.56
2022-12-23T16:48:42.345Z,96198.94
2022-12-23T16:58:45.070Z,96195.16
2022-12-23T17:08:47.955Z,96205.28
2022-12-23T17:18:53.130Z,96195.13
2022-12-23T17:28:55.957Z,96203.38
2022-12-23T17:38:58.173Z,96189.56
2022-12-23T17:49:00.356Z,96177.44
2022-12-23T17:59:02.508Z,96195.94
2022-12-23T18:09:04.674Z,96185.00
2022-12-23T18:19:16.578Z,96155.50
2022-12-23T18:29:18.837Z,96119.91
2022-12-23T18:39:21.230Z,96106.38
2022-12-23T18:49:23.507Z,96095.13
2022-12-23T18:59:29.920Z,96094.59
2022-12-23T19:09:32.559Z,96062.94
2022-12-23T19:19:34.790Z,96075.47
2022-12-23T19:29:36.954Z,96057.47
2022-12-23T19:39:41.044Z,96057.94
2022-12-23T19:49:43.367Z,96074.03
2022-12-23T19:59:45.672Z,96077.47
2022-12-23T20:09:47.870Z,96092.22
2022-12-23T20:19:50.069Z,96117.75
2022-12-23T20:29:52.243Z,96112.53
2022-12-23T20:39:54.475Z,96087.16
2022-12-23T20:49:56.720Z,96075.13
2022-12-23T20:59:58.908Z,96059.56
2022-12-23T21:10:01.097Z,96049.94
2022-12-23T21:20:07.704Z,96039.63
2022-12-23T21:40:12.224Z,96004.09
2022-12-23T21:50:14.490Z,95977.47
2022-12-23T22:00:16.839Z,95941.34
2022-12-23T22:10:19.061Z,95924.94
2022-12-23T22:20:21.468Z,95940.47
2022-12-23T22:30:23.655Z,95926.50
2022-12-23T22:40:25.914Z,95911.00
2022-12-23T22:50:28.077Z,95918.13
2022-12-23T23:00:30.339Z,95906.69
2022-12-23T23:10:32.516Z,95922.28
2022-12-23T23:20:34.696Z,95908.47
2022-12-23T23:30:36.909Z,95925.25
2022-12-23T23:40:39.445Z,95934.06
2022-12-23T23:50:41.913Z,95943.53
